Time;durP1;ratioP1;P1;durP2;ratioP2;P2;SDS_P1;SDS_P2;PMS_P1;PMS_P2;Temp;Humidity;BMP_temperature;BMP_pressure;BME280_temperature;BME280_humidity;BME280_pressure;Samples;Min_cycle;Max_cycle;Signal;HPM_P1;HPM_P2
2022/04/23 00:02:30;;;;;;;0.00;0.00;;;10.60;99.90;;;;;;5142916;27;20067;-72
2022/04/23 00:04:56;;;;;;;0.00;0.00;;;10.60;99.90;;;;;;5142593;27;20078;-73
2022/04/23 00:07:22;;;;;;;0.00;0.00;;;10.60;99.90;;;;;;5143535;28;20323;-75
2022/04/23 00:09:47;;;;;;;0.00;0.00;;;10.60;99.90;;;;;;5143112;28;20079;-72
2022/04/23 00:12:13;;;;;;;0.00;0.00;;;10.60;99.90;;;;;;5124085;28;20230;-73
2022/04/23 00:14:39;;;;;;;0.00;0.00;;;10.60;99.90;;;;;;5142171;28;20211;-73
2022/04/23 00:17:04;;;;;;;0.00;0.00;;;10.60;99.90;;;;;;5124035;28;20206;-74
2022/04/23 00:19:30;;;;;;;0.00;0.00;;;10.60;99.90;;;;;;5142965;28;20019;-73
2022/04/23 00:21:56;;;;;;;0.00;0.00;;;10.70;99.90;;;;;;5142602;28;20026;-74
2022/04/23 00:24:22;;;;;;;0.00;0.00;;;10.70;99.90;;;;;;5126713;27;20023;-73
2022/04/23 00:26:47;;;;;;;0.00;0.00;;;10.60;99.90;;;;;;5147247;27;20063;-73
2022/04/23 00:29:13;;;;;;;0.00;0.00;;;10.60;99.90;;;;;;5128652;27;20278;-72
2022/04/23 00:31:41;;;;;;;0.00;0.00;;;10.60;99.90;;;;;;5128610;27;20055;-72
2022/04/23 00:34:07;;;;;;;0.00;0.00;;;10.60;99.90;;;;;;5128192;27;20321;-73
2022/04/23 00:36:33;;;;;;;0.00;0.00;;;10.60;99.90;;;;;;5128870;27;20015;-74
2022/04/23 00:38:59;;;;;;;0.00;0.00;;;10.60;99.90;;;;;;5128192;27;20020;-74
2022/04/23 00:44:09;;;;;;;0.00;0.00;;;10.60;99.90;;;;;;5146177;27;20049;-75
2022/04/23 00:46:35;;;;;;;0.00;0.00;;;10.60;99.90;;;;;;5146807;27;20019;-74
2022/04/23 00:49:03;;;;;;;0.00;0.00;;;10.60;99.90;;;;;;5146429;27;20082;-74
2022/04/23 00:51:29;;;;;;;3.20;3.00;;;10.60;99.90;;;;;;5128080;27;20051;-73
2022/04/23 00:53:57;;;;;;;0.65;0.45;;;10.60;99.90;;;;;;5146526;27;20015;-73
2022/04/23 00:59:12;;;;;;;0.00;0.00;;;10.50;99.90;;;;;;5146270;27;20053;-73
2022/04/23 01:01:42;;;;;;;0.00;0.00;;;10.50;99.90;;;;;;5146733;27;20034;-74
2022/04/23 01:04:10;;;;;;;0.00;0.00;;;10.50;99.90;;;;;;5127704;27;20382;-73
2022/04/23 01:06:36;;;;;;;0.00;0.00;;;10.50;99.90;;;;;;5146805;27;20026;-74
2022/04/23 01:09:04;;;;;;;0.00;0.00;;;10.50;99.90;;;;;;5146241;27;20015;-73
2022/04/23 01:11:29;;;;;;;0.00;0.00;;;10.50;99.90;;;;;;5146612;27;20056;-73
2022/04/23 01:13:56;;;;;;;0.00;0.00;;;10.60;99.90;;;;;;5146225;27;20023;-74
2022/04/23 01:16:22;;;;;;;0.00;0.00;;;10.60;99.90;;;;;;5127734;27;20025;-73
2022/04/23 01:18:48;;;;;;;0.00;0.00;;;10.50;99.90;;;;;;5146378;27;20015;-74
2022/04/23 01:21:13;;;;;;;0.00;0.00;;;10.60;99.90;;;;;;5127488;27;20047;-74
2022/04/23 01:23:43;;;;;;;0.00;0.00;;;10.50;99.90;;;;;;5146299;27;20131;-74
2022/04/23 01:26:10;;;;;;;0.00;0.00;;;10.50;99.90;;;;;;5126990;27;20022;-74
2022/04/23 01:28:37;;;;;;;0.00;0.00;;;10.50;99.90;;;;;;5128203;27;20023;-74
2022/04/23 01:31:05;;;;;;;0.00;0.00;;;10.50;99.90;;;;;;5145337;27;20027;-72
2022/04/23 01:33:34;;;;;;;0.00;0.00;;;10.50;99.90;;;;;;5145905;27;20020;-72
2022/04/23 01:36:18;;;;;;;0.00;0.00;;;10.50;99.90;;;;;;5126038;27;20587;-71
2022/04/23 01:38:45;;;;;;;0.00;0.00;;;10.50;99.90;;;;;;5127476;27;20027;-74
2022/04/23 01:41:11;;;;;;;0.00;0.00;;;10.50;99.90;;;;;;5145337;27;20337;-74
2022/04/23 01:43:36;;;;;;;0.00;0.00;;;10.50;99.90;;;;;;5146226;27;20026;-74
2022/04/23 01:46:02;;;;;;;0.00;0.00;;;10.50;99.90;;;;;;5126932;27;20015;-71
2022/04/23 01:48:28;;;;;;;0.00;0.00;;;10.50;99.90;;;;;;5127324;27;20037;-73
2022/04/23 01:50:55;;;;;;;1.27;1.17;;;10.50;99.90;;;;;;5145608;27;20059;-73
2022/04/23 01:53:22;;;;;;;0.00;0.00;;;10.60;99.90;;;;;;5126705;27;20022;-73
2022/04/23 01:55:53;;;;;;;0.00;0.00;;;10.60;99.90;;;;;;5145628;27;20023;-71
2022/04/23 01:58:21;;;;;;;0.00;0.00;;;10.50;99.90;;;;;;5145178;27;20015;-73
2022/04/23 02:00:48;;;;;;;0.00;0.00;;;10.60;99.90;;;;;;5127418;27;20098;-73
2022/04/23 02:03:14;;;;;;;0.00;0.00;;;10.50;99.90;;;;;;5145224;27;20117;-72
2022/04/23 02:05:39;;;;;;;0.35;0.35;;;10.60;99.90;;;;;;5127246;27;20015;-72
2022/04/23 02:08:05;;;;;;;1.10;1.10;;;10.60;99.90;;;;;;5144603;27;20155;-72
2022/04/23 02:10:31;;;;;;;0.35;0.35;;;10.70;99.90;;;;;;5126095;27;20332;-72
2022/04/23 02:12:57;;;;;;;0.00;0.00;;;10.60;99.90;;;;;;5145335;27;20023;-73
2022/04/23 02:15:23;;;;;;;2.38;1.35;;;10.60;99.90;;;;;;5141390;27;20089;-72
2022/04/23 02:17:50;;;;;;;0.00;0.00;;;10.60;99.90;;;;;;5142681;27;20030;-72
2022/04/23 02:20:17;;;;;;;0.00;0.00;;;10.60;99.90;;;;;;5141212;27;20015;-73
2022/04/23 02:22:44;;;;;;;0.00;0.00;;;10.60;99.90;;;;;;5141529;27;20034;-72
2022/04/23 02:25:11;;;;;;;0.00;0.00;;;10.60;99.90;;;;;;5123357;27;20019;-72
2022/04/23 02:27:48;;;;;;;0.00;0.00;;;10.60;99.90;;;;;;5108322;27;20094;-73
2022/04/23 02:30:16;;;;;;;0.00;0.00;;;10.60;99.90;;;;;;5143672;27;20019;-71
2022/04/23 02:32:43;;;;;;;0.00;0.00;;;10.50;99.90;;;;;;5144060;27;20050;-73
2022/04/23 02:35:11;;;;;;;0.00;0.00;;;10.50;99.90;;;;;;5144357;27;20023;-73
2022/04/23 02:37:37;;;;;;;0.00;0.00;;;10.50;99.90;;;;;;5126503;27;20015;-73
2022/04/23 02:40:05;;;;;;;0.00;0.00;;;10.60;99.90;;;;;;5144456;27;20082;-73
2022/04/23 02:42:31;;;;;;;0.00;0.00;;;10.50;99.90;;;;;;5145032;27;20043;-74
2022/04/23 02:45:01;;;;;;;0.00;0.00;;;10.50;99.90;;;;;;5126611;27;20015;-73
2022/04/23 02:47:40;;;;;;;0.00;0.00;;;10.50;99.90;;;;;;5144287;27;20015;-74
2022/04/23 02:50:06;;;;;;;0.00;0.00;;;10.50;99.90;;;;;;5143882;27;20039;-72
2022/04/23 02:52:32;;;;;;;0.80;0.80;;;10.40;99.90;;;;;;5144432;27;20038;-73
2022/04/23 02:54:57;;;;;;;0.00;0.00;;;10.50;99.90;;;;;;5144434;27;20137;-73
2022/04/23 02:57:23;;;;;;;0.00;0.00;;;10.50;99.90;;;;;;5125726;27;20150;-73
2022/04/23 02:59:49;;;;;;;6.57;5.93;;;10.40;99.90;;;;;;5126210;27;20020;-73
2022/04/23 03:02:15;;;;;;;0.57;0.57;;;10.40;99.90;;;;;;5143816;27;20053;-73
2022/04/23 03:04:43;;;;;;;0.00;0.00;;;10.40;99.90;;;;;;5144353;27;20107;-73
2022/04/23 03:07:10;;;;;;;0.00;0.00;;;10.40;99.90;;;;;;5143956;27;20015;-73
2022/04/23 03:09:37;;;;;;;1.35;1.35;;;10.40;99.90;;;;;;5126069;27;20034;-73
2022/04/23 03:12:03;;;;;;;0.17;0.17;;;10.40;99.90;;;;;;5125591;27;20098;-73
2022/04/23 03:14:30;;;;;;;0.00;0.00;;;10.30;99.90;;;;;;5143924;27;20023;-73
2022/04/23 03:16:56;;;;;;;0.00;0.00;;;10.40;99.90;;;;;;5126040;27;20098;-73
2022/04/23 03:19:22;;;;;;;0.00;0.00;;;10.40;99.90;;;;;;5143700;27;20248;-73
2022/04/23 03:21:48;;;;;;;0.00;0.00;;;10.40;99.90;;;;;;5143792;27;20094;-73
2022/04/23 03:24:13;;;;;;;0.00;0.00;;;10.40;99.90;;;;;;5143403;27;20014;-74
2022/04/23 03:26:39;;;;;;;0.00;0.00;;;10.40;99.90;;;;;;5143820;27;20019;-73
2022/04/23 03:29:05;;;;;;;0.10;0.10;;;10.30;99.90;;;;;;5143568;27;20056;-73
2022/04/23 03:31:31;;;;;;;0.00;0.00;;;10.30;99.90;;;;;;5125556;27;20080;-73
2022/04/23 03:33:57;;;;;;;0.00;0.00;;;10.30;99.90;;;;;;5125802;27;20074;-73
2022/04/23 03:36:22;;;;;;;0.00;0.00;;;10.30;99.90;;;;;;5143038;27;20198;-75
2022/04/23 03:38:48;;;;;;;0.00;0.00;;;10.30;99.90;;;;;;5125653;27;20045;-73
2022/04/23 03:41:14;;;;;;;0.00;0.00;;;10.30;99.90;;;;;;5125076;27;20282;-73
2022/04/23 03:43:39;;;;;;;0.00;0.00;;;10.30;99.90;;;;;;5143863;27;20030;-74
2022/04/23 03:46:05;;;;;;;0.00;0.00;;;10.20;99.90;;;;;;5143352;27;20365;-73
2022/04/23 03:48:31;;;;;;;0.00;0.00;;;10.20;99.90;;;;;;5143254;27;20377;-74
2022/04/23 03:50:56;;;;;;;0.00;0.00;;;10.20;99.90;;;;;;5143830;27;20271;-74
2022/04/23 03:53:22;;;;;;;0.00;0.00;;;10.20;99.90;;;;;;5142798;27;20203;-74
2022/04/23 03:55:48;;;;;;;0.00;0.00;;;10.20;99.90;;;;;;5143552;27;20078;-74
2022/04/23 03:58:14;;;;;;;0.00;0.00;;;10.20;99.90;;;;;;5142321;27;20140;-74
2022/04/23 04:00:40;;;;;;;0.00;0.00;;;10.30;99.90;;;;;;5143459;27;20352;-74
2022/04/23 04:03:05;;;;;;;0.00;0.00;;;10.30;99.90;;;;;;5143168;28;20324;-72
2022/04/23 04:05:31;;;;;;;0.10;0.08;;;10.30;99.90;;;;;;5125257;28;20325;-74
2022/04/23 04:07:57;;;;;;;0.00;0.00;;;10.30;99.90;;;;;;5125443;28;20042;-74
2022/04/23 04:10:24;;;;;;;0.00;0.00;;;10.20;99.90;;;;;;5142616;28;20026;-74
2022/04/23 04:12:51;;;;;;;0.00;0.00;;;10.20;99.90;;;;;;5125248;28;20034;-74
2022/04/23 04:15:19;;;;;;;0.00;0.00;;;10.30;99.90;;;;;;5142989;28;20023;-74
2022/04/23 04:18:06;;;;;;;1.23;1.23;;;10.20;99.90;;;;;;5143405;28;20019;-74
2022/04/23 04:20:32;;;;;;;0.00;0.00;;;10.20;99.90;;;;;;5142848;28;20023;-74
2022/04/23 04:22:58;;;;;;;0.00;0.00;;;10.20;99.90;;;;;;5143495;28;20325;-74
2022/04/23 04:25:24;;;;;;;0.00;0.00;;;10.20;99.90;;;;;;5143290;28;20023;-74
2022/04/23 04:27:50;;;;;;;0.00;0.00;;;10.20;99.90;;;;;;5125167;28;20354;-74
2022/04/23 04:30:15;;;;;;;0.00;0.00;;;10.20;99.90;;;;;;5142462;28;20026;-74
2022/04/23 04:32:41;;;;;;;0.00;0.00;;;10.20;99.90;;;;;;5143127;28;20051;-74
2022/04/23 04:35:09;;;;;;;0.10;0.10;;;10.20;99.90;;;;;;5124892;28;20098;-74
2022/04/23 04:37:36;;;;;;;0.00;0.00;;;10.20;99.90;;;;;;5143273;28;20026;-74
2022/04/23 04:40:02;;;;;;;0.00;0.00;;;10.30;99.90;;;;;;5143349;28;20027;-74
2022/04/23 04:42:28;;;;;;;0.00;0.00;;;10.20;99.90;;;;;;5142392;28;20019;-75
2022/04/23 04:44:53;;;;;;;0.00;0.00;;;10.20;99.90;;;;;;5125041;28;20026;-74
2022/04/23 04:47:19;;;;;;;0.00;0.00;;;10.20;99.90;;;;;;5124370;28;20046;-74
2022/04/23 04:49:45;;;;;;;0.00;0.00;;;10.20;99.90;;;;;;5124864;28;20019;-74
2022/04/23 04:52:11;;;;;;;0.00;0.00;;;10.20;99.90;;;;;;5124219;28;20064;-73
2022/04/23 04:54:36;;;;;;;0.00;0.00;;;10.20;99.90;;;;;;5143062;28;20063;-73
2022/04/23 04:57:03;;;;;;;0.00;0.00;;;10.10;99.90;;;;;;5122638;28;20016;-74
2022/04/23 04:59:32;;;;;;;0.00;0.00;;;10.20;99.90;;;;;;5136802;28;20387;-74
2022/04/23 05:01:59;;;;;;;0.00;0.00;;;10.20;99.90;;;;;;5142743;28;20083;-73
2022/04/23 05:04:25;;;;;;;0.00;0.00;;;10.20;99.90;;;;;;5142803;28;20023;-74
2022/04/23 05:06:51;;;;;;;0.00;0.00;;;10.20;99.90;;;;;;5124732;28;20270;-74
2022/04/23 05:09:16;;;;;;;0.00;0.00;;;10.10;99.90;;;;;;5137112;28;20043;-74
2022/04/23 05:12:01;;;;;;;0.00;0.00;;;10.20;99.90;;;;;;5119868;27;20018;-74
2022/04/23 05:14:27;;;;;;;0.00;0.00;;;10.20;99.90;;;;;;5140103;27;20329;-74
2022/04/23 05:16:53;;;;;;;0.10;0.10;;;10.20;99.90;;;;;;5126578;27;20019;-73
2022/04/23 05:19:18;;;;;;;0.00;0.00;;;10.20;99.90;;;;;;5128169;27;20090;-73
2022/04/23 05:21:44;;;;;;;0.00;0.00;;;10.20;99.90;;;;;;5128161;27;20124;-74
2022/04/23 05:24:10;;;;;;;0.00;0.00;;;10.20;99.90;;;;;;5145691;27;20042;-73
2022/04/23 05:26:35;;;;;;;0.55;0.55;;;10.20;99.90;;;;;;5145733;27;20078;-74
2022/04/23 05:29:02;;;;;;;1.00;0.28;;;10.20;99.90;;;;;;5146276;27;20022;-74
2022/04/23 05:31:28;;;;;;;0.00;0.00;;;10.20;99.90;;;;;;5145727;27;20030;-74
2022/04/23 05:33:54;;;;;;;0.45;0.45;;;10.20;99.90;;;;;;5146602;27;20091;-74
2022/04/23 05:36:20;;;;;;;0.38;0.25;;;10.20;99.90;;;;;;5145384;27;20015;-73
2022/04/23 05:38:46;;;;;;;1.65;0.32;;;10.20;99.90;;;;;;5127774;27;20022;-73
2022/04/23 05:41:12;;;;;;;0.00;0.00;;;10.20;99.90;;;;;;5127551;27;20327;-72
2022/04/23 05:43:37;;;;;;;0.00;0.00;;;10.20;99.90;;;;;;5145907;27;20370;-73
2022/04/23 05:46:03;;;;;;;0.00;0.00;;;10.20;99.90;;;;;;5127683;27;20023;-73
2022/04/23 05:48:29;;;;;;;0.00;0.00;;;10.20;99.90;;;;;;5127050;27;20025;-73
2022/04/23 05:50:55;;;;;;;0.00;0.00;;;10.20;99.90;;;;;;5146257;27;20310;-75
2022/04/23 05:53:20;;;;;;;0.00;0.00;;;10.20;99.90;;;;;;5145563;27;20019;-77
2022/04/23 05:55:46;;;;;;;0.00;0.00;;;10.20;99.90;;;;;;5146092;27;20101;-76
2022/04/23 05:58:12;;;;;;;0.35;0.35;;;10.20;99.90;;;;;;5126859;27;20302;-74
2022/04/23 06:00:37;;;;;;;0.00;0.00;;;10.20;99.90;;;;;;5145696;27;20029;-76
2022/04/23 06:03:03;;;;;;;0.00;0.00;;;10.20;99.90;;;;;;5127611;27;20018;-75
2022/04/23 06:05:29;;;;;;;0.00;0.00;;;10.20;99.90;;;;;;5126679;27;20306;-75
2022/04/23 06:07:55;;;;;;;1.85;0.43;;;10.20;99.90;;;;;;5145669;27;20049;-75
2022/04/23 06:10:20;;;;;;;0.00;0.00;;;10.20;99.90;;;;;;5145312;27;20027;-76
2022/04/23 06:12:46;;;;;;;0.40;0.17;;;10.30;99.90;;;;;;5145701;27;20023;-76
2022/04/23 06:15:12;;;;;;;0.00;0.00;;;10.30;99.90;;;;;;5145649;27;20027;-73
2022/04/23 06:17:37;;;;;;;0.00;0.00;;;10.30;99.90;;;;;;5145257;27;20023;-74
2022/04/23 06:20:05;;;;;;;0.00;0.00;;;10.20;99.90;;;;;;5145379;27;20041;-75
2022/04/23 06:22:31;;;;;;;0.30;0.30;;;10.20;99.90;;;;;;5126509;27;20301;-74
2022/04/23 06:24:57;;;;;;;0.00;0.00;;;10.20;99.90;;;;;;5127255;27;20038;-74
2022/04/23 06:27:23;;;;;;;0.00;0.00;;;10.20;99.90;;;;;;5126335;27;20303;-76
2022/04/23 06:29:48;;;;;;;0.00;0.00;;;10.20;99.90;;;;;;5126943;27;20151;-75
2022/04/23 06:32:14;;;;;;;0.00;0.00;;;10.10;99.90;;;;;;5126258;27;20098;-74
2022/04/23 06:34:40;;;;;;;0.00;0.00;;;10.10;99.90;;;;;;5145263;27;20011;-73
2022/04/23 06:37:06;;;;;;;0.00;0.00;;;10.20;99.90;;;;;;5126981;27;20025;-74
2022/04/23 06:39:32;;;;;;;0.00;0.00;;;10.10;99.90;;;;;;5126452;27;20015;-74
2022/04/23 06:41:58;;;;;;;0.00;0.00;;;10.10;99.90;;;;;;5126491;27;20027;-75
2022/04/23 06:44:24;;;;;;;0.00;0.00;;;10.20;99.90;;;;;;5144238;27;20023;-75
2022/04/23 06:46:50;;;;;;;0.00;0.00;;;10.10;99.90;;;;;;5126671;27;20082;-75
2022/04/23 06:49:16;;;;;;;0.00;0.00;;;10.20;99.90;;;;;;5125747;27;20298;-73
2022/04/23 06:51:43;;;;;;;0.00;0.00;;;10.20;99.90;;;;;;5126006;27;20054;-75
2022/04/23 06:54:09;;;;;;;0.00;0.00;;;10.20;99.90;;;;;;5144884;27;20015;-75
2022/04/23 06:56:36;;;;;;;0.00;0.00;;;10.00;99.90;;;;;;5143823;27;20241;-76
2022/04/23 06:59:04;;;;;;;0.00;0.00;;;10.20;99.90;;;;;;5144214;27;20015;-74
2022/04/23 07:01:30;;;;;;;0.00;0.00;;;10.20;99.90;;;;;;5125265;27;20045;-74
2022/04/23 07:03:55;;;;;;;0.00;0.00;;;10.20;99.90;;;;;;5144244;27;20310;-74
2022/04/23 07:06:21;;;;;;;0.00;0.00;;;10.30;99.90;;;;;;5143626;27;20019;-75
2022/04/23 07:08:47;;;;;;;0.00;0.00;;;10.30;99.90;;;;;;5125862;27;20026;-75
2022/04/23 07:11:13;;;;;;;0.00;0.00;;;10.30;99.90;;;;;;5125741;27;20046;-74
2022/04/23 07:13:39;;;;;;;0.00;0.00;;;10.20;99.90;;;;;;5143019;27;20329;-76
2022/04/23 07:16:05;;;;;;;0.00;0.00;;;10.30;99.90;;;;;;5125874;27;20098;-75
2022/04/23 07:18:32;;;;;;;0.00;0.00;;;10.20;99.90;;;;;;5143367;27;20019;-75
2022/04/23 07:20:58;;;;;;;0.00;0.00;;;10.20;99.90;;;;;;5125878;27;20022;-74
2022/04/23 07:26:08;;;;;;;0.00;0.00;;;10.30;99.90;;;;;;5144101;27;20026;-75
2022/04/23 07:28:35;;;;;;;2.92;2.72;;;10.30;99.90;;;;;;5125323;27;20023;-74
2022/04/23 07:31:01;;;;;;;0.08;0.08;;;10.30;99.90;;;;;;5125308;27;20019;-74
2022/04/23 07:38:56;;;;;;;0.00;0.00;;;10.50;99.90;;;;;;5143630;27;20048;-75
2022/04/23 07:41:22;;;;;;;0.00;0.00;;;10.50;99.90;;;;;;5124883;27;20054;-73
2022/04/23 07:43:48;;;;;;;0.00;0.00;;;10.50;99.90;;;;;;5125261;27;20015;-76
2022/04/23 07:46:14;;;;;;;0.00;0.00;;;10.50;99.90;;;;;;5142693;27;20026;-76
2022/04/23 07:48:39;;;;;;;0.00;0.00;;;10.50;99.90;;;;;;5124434;27;20015;-74
2022/04/23 07:51:05;;;;;;;0.00;0.00;;;10.60;99.90;;;;;;5124954;27;20115;-74
2022/04/23 07:53:31;;;;;;;0.00;0.00;;;10.60;99.90;;;;;;5124359;27;20039;-75
2022/04/23 07:55:57;;;;;;;0.00;0.00;;;10.70;99.90;;;;;;5124920;27;20045;-74
2022/04/23 07:58:23;;;;;;;0.00;0.00;;;10.70;99.90;;;;;;5124515;27;20015;-74
2022/04/23 08:00:49;;;;;;;0.00;0.00;;;10.80;99.90;;;;;;5124885;28;20019;-74
2022/04/23 08:03:15;;;;;;;1.45;0.28;;;10.80;99.90;;;;;;5124520;27;20015;-75
2022/04/23 08:05:42;;;;;;;0.00;0.00;;;10.80;99.90;;;;;;5124319;28;20094;-76
2022/04/23 08:08:07;;;;;;;0.25;0.15;;;10.80;99.90;;;;;;5143328;28;20037;-74
2022/04/23 08:10:34;;;;;;;0.10;0.10;;;10.90;99.90;;;;;;5142675;28;20075;-75
2022/04/23 08:13:00;;;;;;;0.00;0.00;;;11.00;99.90;;;;;;5143491;28;20027;-74
2022/04/23 08:15:29;;;;;;;0.00;0.00;;;11.00;99.90;;;;;;5123651;28;20019;-74
2022/04/23 08:17:55;;;;;;;0.00;0.00;;;11.00;99.90;;;;;;5124359;28;20057;-74
2022/04/23 08:20:21;;;;;;;0.00;0.00;;;11.10;99.90;;;;;;5142025;28;20202;-74
2022/04/23 08:22:46;;;;;;;0.10;0.10;;;11.20;99.90;;;;;;5143053;28;20019;-75
2022/04/23 08:25:12;;;;;;;0.30;0.22;;;11.20;99.90;;;;;;5124219;28;20019;-74
2022/04/23 08:30:34;;;;;;;0.20;0.20;;;11.30;99.90;;;;;;5124221;28;20090;-74
2022/04/23 08:30:42;;;;;;;0.00;0.00;;;11.40;99.90;;;;;;5141926;28;20051;-73
2022/04/23 08:33:09;;;;;;;0.00;0.00;;;11.60;99.90;;;;;;5143202;28;20063;-75
2022/04/23 08:35:36;;;;;;;0.13;0.03;;;11.70;99.90;;;;;;5124031;28;20011;-74
2022/04/23 08:38:06;;;;;;;0.00;0.00;;;11.80;99.90;;;;;;5142930;28;20094;-75
2022/04/23 08:40:40;;;;;;;0.22;0.22;;;11.90;99.90;;;;;;5142352;28;20094;-75
2022/04/23 08:43:08;;;;;;;0.00;0.00;;;12.00;99.90;;;;;;5124914;28;20026;-75
2022/04/23 08:45:39;;;;;;;0.00;0.00;;;12.00;99.90;;;;;;5126213;27;20039;-74
2022/04/23 08:48:11;;;;;;;0.00;0.00;;;12.10;99.90;;;;;;5127049;27;20021;-75
2022/04/23 08:50:39;;;;;;;0.00;0.00;;;12.10;99.90;;;;;;5146291;27;20080;-74
2022/04/23 08:53:14;;;;;;;0.00;0.00;;;12.10;99.90;;;;;;5128564;27;20042;-75
2022/04/23 08:55:44;;;;;;;0.00;0.00;;;12.10;99.90;;;;;;5146347;27;20348;-74
2022/04/23 08:58:12;;;;;;;0.00;0.00;;;12.10;99.90;;;;;;5147036;27;20015;-75
2022/04/23 09:00:37;;;;;;;0.00;0.00;;;12.10;99.90;;;;;;5127642;27;20019;-75
2022/04/23 09:03:04;;;;;;;0.00;0.00;;;11.90;99.90;;;;;;5128536;27;20023;-74
2022/04/23 09:05:31;;;;;;;0.00;0.00;;;12.00;99.90;;;;;;5146425;27;20026;-75
2022/04/23 09:07:57;;;;;;;0.00;0.00;;;12.10;99.90;;;;;;5128484;27;20046;-74
2022/04/23 09:10:46;;;;;;;0.00;0.00;;;12.20;99.90;;;;;;5146398;27;20035;-74
2022/04/23 09:13:32;;;;;;;0.00;0.00;;;12.30;99.90;;;;;;5146547;27;20042;-74
2022/04/23 09:24:19;;;;;;;0.00;0.00;;;12.80;99.90;;;;;;5146233;27;20132;-74
2022/04/23 09:27:06;;;;;;;0.00;0.00;;;12.80;99.90;;;;;;5127258;27;20214;-74
2022/04/23 09:29:32;;;;;;;0.00;0.00;;;12.90;99.90;;;;;;5127494;27;20054;-73
2022/04/23 09:32:14;;;;;;;0.00;0.00;;;12.90;99.90;;;;;;5146216;27;20027;-74
2022/04/23 09:34:40;;;;;;;0.00;0.00;;;12.90;99.90;;;;;;5145222;27;20037;-74
2022/04/23 09:37:08;;;;;;;0.00;0.00;;;12.90;99.90;;;;;;5127724;27;20039;-74
2022/04/23 09:39:35;;;;;;;0.00;0.00;;;13.00;99.90;;;;;;5127053;27;20050;-75
2022/04/23 09:42:12;;;;;;;1.02;1.02;;;13.00;99.90;;;;;;5145646;27;20027;-75
2022/04/23 09:44:38;;;;;;;1.23;0.35;;;13.00;99.90;;;;;;5145284;27;20068;-72
2022/04/23 09:47:04;;;;;;;0.00;0.00;;;13.00;99.90;;;;;;5127585;27;20026;-75
2022/04/23 09:49:30;;;;;;;0.00;0.00;;;13.10;99.90;;;;;;5145102;27;20019;-73
2022/04/23 09:52:13;;;;;;;0.00;0.00;;;13.10;99.90;;;;;;5145592;27;20026;-74
2022/04/23 09:54:39;;;;;;;0.00;0.00;;;13.20;99.90;;;;;;5145527;27;20033;-74
2022/04/23 09:57:05;;;;;;;0.00;0.00;;;13.30;99.90;;;;;;5126288;27;20170;-74
2022/04/23 09:59:31;;;;;;;0.00;0.00;;;13.40;99.90;;;;;;5145367;27;20022;-73
2022/04/23 10:01:58;;;;;;;0.00;0.00;;;13.40;99.90;;;;;;5145691;27;20015;-74
2022/04/23 10:04:27;;;;;;;0.00;0.00;;;13.50;99.90;;;;;;5126637;27;20019;-73
2022/04/23 10:06:54;;;;;;;0.00;0.00;;;13.60;99.90;;;;;;5145569;27;20015;-74
2022/04/23 10:09:24;;;;;;;0.05;0.05;;;13.60;99.90;;;;;;5145852;27;20015;-74
2022/04/23 10:12:08;;;;;;;0.00;0.00;;;13.60;99.90;;;;;;5145543;27;20023;-75
2022/04/23 10:14:42;;;;;;;0.00;0.00;;;13.70;99.90;;;;;;5145029;27;20046;-74
2022/04/23 10:17:10;;;;;;;0.00;0.00;;;13.70;99.90;;;;;;5127039;27;20015;-74
2022/04/23 10:19:36;;;;;;;;;;;13.80;99.90;;;;;;5126676;27;20015;-74
2022/04/23 10:22:21;;;;;;;0.00;0.00;;;13.80;99.90;;;;;;5127054;27;19966;-75
2022/04/23 10:25:10;;;;;;;0.00;0.00;;;14.00;99.90;;;;;;5144731;27;20082;-72
2022/04/23 10:27:37;;;;;;;0.00;0.00;;;14.10;99.90;;;;;;5144524;27;20015;-75
2022/04/23 10:30:04;;;;;;;0.00;0.00;;;14.10;99.90;;;;;;5126695;27;20023;-76
2022/04/23 10:32:40;;;;;;;0.25;0.25;;;14.10;99.90;;;;;;5144281;27;20023;-73
2022/04/23 10:35:18;;;;;;;0.00;0.00;;;14.20;99.90;;;;;;5109766;27;20086;-74
2022/04/23 10:37:49;;;;;;;0.00;0.00;;;14.30;99.90;;;;;;5144326;27;20086;-75
2022/04/23 10:40:18;;;;;;;0.00;0.00;;;14.30;99.90;;;;;;5144693;27;20019;-75
2022/04/23 10:43:12;;;;;;;0.00;0.00;;;14.40;99.90;;;;;;5126116;27;20032;-75
2022/04/23 10:45:40;;;;;;;0.00;0.00;;;14.30;99.90;;;;;;5126157;27;20055;-74
2022/04/23 10:48:43;;;;;;;0.68;0.68;;;14.30;99.90;;;;;;5126433;27;20210;-74
2022/04/23 10:51:12;;;;;;;0.47;0.47;;;14.30;99.90;;;;;;5127776;27;20043;-73
2022/04/23 10:53:37;;;;;;;;;;;14.30;99.90;;;;;;5144291;27;20256;-75
2022/04/23 10:56:17;;;;;;;0.00;0.00;;;14.30;99.90;;;;;;5126213;27;19899;-72
2022/04/23 10:58:43;;;;;;;0.00;0.00;;;14.40;99.90;;;;;;5125512;27;20090;-75
2022/04/23 11:01:27;;;;;;;0.00;0.00;;;14.50;99.90;;;;;;5125754;27;20076;-75
2022/04/23 11:03:59;;;;;;;0.00;0.00;;;14.40;99.90;;;;;;5126548;27;20043;-75
2022/04/23 11:12:37;;;;;;;0.00;0.00;;;14.60;99.90;;;;;;5070356;27;20104;-74
2022/04/23 11:15:14;;;;;;;1.75;0.68;;;14.50;99.90;;;;;;5144566;27;20256;-75
2022/04/23 11:17:40;;;;;;;0.00;0.00;;;14.40;99.90;;;;;;5125512;27;20089;-74
2022/04/23 11:20:06;;;;;;;0.00;0.00;;;14.40;99.90;;;;;;5144545;27;20270;-74
2022/04/23 11:22:32;;;;;;;0.00;0.00;;;14.40;99.90;;;;;;5143524;27;20023;-74
2022/04/23 11:24:59;;;;;;;0.00;0.00;;;14.50;99.90;;;;;;5126038;27;20325;-74
2022/04/23 11:27:30;;;;;;;0.20;0.20;;;14.60;99.90;;;;;;5143360;27;20015;-73
2022/04/23 11:29:56;;;;;;;0.57;0.57;;;14.50;99.90;;;;;;5144289;27;20042;-74
2022/04/23 11:32:26;;;;;;;0.00;0.00;;;14.50;99.90;;;;;;5125707;27;20273;-73
2022/04/23 11:34:59;;;;;;;0.00;0.00;;;14.50;99.90;;;;;;5143983;27;20041;-74
2022/04/23 11:37:35;;;;;;;0.00;0.00;;;14.60;99.90;;;;;;5143316;27;20011;-72
2022/04/23 11:40:16;;;;;;;0.00;0.00;;;14.60;99.90;;;;;;5143984;27;20090;-73
2022/04/23 11:42:47;;;;;;;0.52;0.52;;;14.50;99.90;;;;;;5143658;27;20038;-73
2022/04/23 11:45:14;;;;;;;1.80;0.88;;;14.50;99.90;;;;;;5144110;27;20015;-74
2022/04/23 11:47:40;;;;;;;0.00;0.00;;;14.60;99.90;;;;;;5143599;27;20095;-74
2022/04/23 11:50:17;;;;;;;0.08;0.08;;;14.50;99.90;;;;;;5143728;27;20047;-74
2022/04/23 11:52:45;;;;;;;0.32;0.32;;;14.60;99.90;;;;;;5143407;27;20193;-73
2022/04/23 11:55:25;;;;;;;0.00;0.00;;;14.60;99.90;;;;;;5125346;27;20023;-73
2022/04/23 11:58:04;;;;;;;0.00;0.00;;;14.60;99.90;;;;;;5143637;27;20015;-73
2022/04/23 12:00:34;;;;;;;0.00;0.00;;;14.60;99.90;;;;;;5124981;28;20015;-73
2022/04/23 12:03:00;;;;;;;0.00;0.00;;;14.70;99.90;;;;;;5143465;27;20023;-73
2022/04/23 12:05:30;;;;;;;0.00;0.00;;;14.80;99.90;;;;;;5142857;27;20035;-72
2022/04/23 12:07:57;;;;;;;0.38;0.10;;;14.90;99.90;;;;;;5143869;27;20019;-73
2022/04/23 12:10:30;;;;;;;0.00;0.00;;;14.90;99.90;;;;;;5143729;28;20170;-73
2022/04/23 12:13:05;;;;;;;0.00;0.00;;;15.00;99.90;;;;;;5125263;28;20023;-74
2022/04/23 12:15:32;;;;;;;0.00;0.00;;;14.90;99.90;;;;;;5124883;28;20047;-73
2022/04/23 12:17:58;;;;;;;0.00;0.00;;;14.90;99.90;;;;;;5143284;28;20027;-73
2022/04/23 12:20:25;;;;;;;0.03;0.03;;;14.90;99.90;;;;;;5145018;27;20302;-72
2022/04/23 12:22:59;;;;;;;0.00;0.00;;;14.90;99.90;;;;;;5129456;27;20228;-73
2022/04/23 12:25:30;;;;;;;0.05;0.05;;;14.90;99.90;;;;;;5147020;27;20225;-73
2022/04/23 12:42:05;;;;;;;0.00;0.00;;;15.20;99.90;;;;;;5147175;27;20054;-74
2022/04/23 12:44:32;;;;;;;0.00;0.00;;;15.20;99.90;;;;;;5147036;27;20317;-74
2022/04/23 12:47:04;;;;;;;0.88;0.45;;;15.20;99.90;;;;;;5147481;27;20086;-74
2022/04/23 12:49:50;;;;;;;0.00;0.00;;;15.20;99.90;;;;;;5128261;27;20030;-73
2022/04/23 12:52:21;;;;;;;0.00;0.00;;;15.10;99.90;;;;;;5146899;27;20252;-74
2022/04/23 12:55:18;;;;;;;0.00;0.00;;;15.20;99.90;;;;;;5128374;27;20055;-73
2022/04/23 12:58:04;;;;;;;0.20;0.20;;;15.10;99.90;;;;;;5146865;27;20178;-73
2022/04/23 13:00:31;;;;;;;0.17;0.00;;;15.00;99.90;;;;;;5146277;27;20019;-72
2022/04/23 13:03:00;;;;;;;0.00;0.00;;;15.00;99.90;;;;;;5146727;27;20023;-74
2022/04/23 13:05:27;;;;;;;0.00;0.00;;;15.00;99.90;;;;;;5128241;27;20019;-73
2022/04/23 13:10:38;;;;;;;0.00;0.00;;;15.00;99.90;;;;;;5146021;27;20378;-72
2022/04/23 13:13:09;;;;;;;0.00;0.00;;;15.00;99.90;;;;;;5146641;27;20145;-72
2022/04/23 13:15:36;;;;;;;0.40;0.22;;;15.10;99.90;;;;;;5127853;27;20262;-72
2022/04/23 13:18:02;;;;;;;0.00;0.00;;;15.10;99.90;;;;;;5146660;27;20015;-72
2022/04/23 13:20:28;;;;;;;0.00;0.00;;;15.20;99.90;;;;;;5146182;27;20133;-72
2022/04/23 13:22:55;;;;;;;0.00;0.00;;;15.40;99.90;;;;;;5127814;27;20019;-72
2022/04/23 13:25:21;;;;;;;0.00;0.00;;;15.40;99.90;;;;;;5127479;27;20031;-74
2022/04/23 13:27:47;;;;;;;0.00;0.00;;;15.50;99.90;;;;;;5145805;27;20019;-73
2022/04/23 13:30:14;;;;;;;0.03;0.03;;;15.50;99.90;;;;;;5146310;27;20092;-73
2022/04/23 13:32:42;;;;;;;0.00;0.00;;;15.60;99.90;;;;;;5144492;27;20023;-73
2022/04/23 13:35:12;;;;;;;0.00;0.00;;;15.60;99.90;;;;;;5146254;27;20031;-73
2022/04/23 13:37:39;;;;;;;0.00;0.00;;;15.60;99.90;;;;;;5145863;27;20015;-73
2022/04/23 13:40:06;;;;;;;0.00;0.00;;;15.50;99.90;;;;;;5146100;27;20325;-73